createdAt,value
2018-09-15T00:00:40.757Z,98797.97
2018-09-15T00:03:10.201Z,98802.30
2018-09-15T00:05:39.595Z,98806.16
2018-09-15T00:08:08.983Z,98810.41
2018-09-15T00:10:38.400Z,98807.00
2018-09-15T00:13:07.906Z,98803.55
2018-09-15T00:15:37.308Z,98804.93
2018-09-15T00:18:09.782Z,98809.08
2018-09-15T00:20:39.287Z,98816.08
2018-09-15T00:23:09.555Z,98810.11
2018-09-15T00:25:39.216Z,98813.20
2018-09-15T00:28:09.128Z,98809.78
2018-09-15T00:30:38.531Z,98802.96
2018-09-15T00:33:07.834Z,98806.49
2018-09-15T00:35:37.234Z,98805.11
2018-09-15T00:38:06.637Z,98811.17
2018-09-15T00:40:36.037Z,98823.79
2018-09-15T00:43:05.644Z,98829.77
2018-09-15T00:45:35.046Z,98824.97
2018-09-15T00:48:04.554Z,98819.44
2018-09-15T00:50:33.849Z,98824.73
2018-09-15T00:53:03.250Z,98826.44
2018-09-15T00:55:32.551Z,98824.91
2018-09-15T00:58:01.852Z,98820.76
2018-09-15T01:00:31.151Z,98816.14
2018-09-15T01:03:00.755Z,98805.61
2018-09-15T01:05:30.158Z,98811.11
2018-09-15T01:07:59.665Z,98813.93
2018-09-15T01:10:29.070Z,98815.91
2018-09-15T01:12:58.468Z,98814.64
2018-09-15T01:15:27.869Z,98814.81
2018-09-15T01:17:57.270Z,98814.70
2018-09-15T01:20:26.570Z,98815.25
2018-09-15T01:22:55.971Z,98808.39
2018-09-15T01:25:25.374Z,98814.45
2018-09-15T01:27:54.776Z,98817.36
2018-09-15T01:30:24.275Z,98819.08
2018-09-15T01:32:53.576Z,98824.98
2018-09-15T01:35:22.875Z,98828.70
2018-09-15T01:37:52.384Z,98839.86
2018-09-15T01:40:21.783Z,98836.80
2018-09-15T01:42:51.387Z,98839.88
2018-09-15T01:45:20.696Z,98843.53
2018-09-15T01:47:50.194Z,98841.64
2018-09-15T01:50:19.600Z,98838.56
2018-09-15T01:52:48.999Z,98845.55
2018-09-15T01:55:18.400Z,98840.76
2018-09-15T01:57:47.813Z,98834.87
2018-09-15T02:00:17.309Z,98831.88
2018-09-15T02:02:46.711Z,98836.73
2018-09-15T02:05:16.114Z,98830.61
2018-09-15T02:07:45.660Z,98839.56
2018-09-15T02:10:15.026Z,98840.53
2018-09-15T02:12:44.521Z,98837.82
2018-09-15T02:15:13.925Z,98840.41
2018-09-15T02:17:43.427Z,98839.34
2018-09-15T02:20:12.829Z,98838.47
2018-09-15T02:22:42.318Z,98840.03
2018-09-15T02:25:11.527Z,98839.38
2018-09-15T02:27:40.831Z,98836.67
2018-09-15T02:30:10.392Z,98838.69
2018-09-15T02:32:39.841Z,98842.31
2018-09-15T02:35:09.448Z,98841.46
2018-09-15T02:37:38.850Z,98845.84
2018-09-15T02:40:08.252Z,98849.65
2018-09-15T02:42:37.756Z,98849.69
2018-09-15T02:45:07.260Z,98850.63
2018-09-15T02:47:36.771Z,98850.80
2018-09-15T02:50:06.892Z,98846.55
2018-09-15T02:52:36.430Z,98845.77
2018-09-15T02:55:06.194Z,98846.95
2018-09-15T02:57:35.918Z,98839.39
2018-09-15T03:00:05.357Z,98844.39
2018-09-15T03:02:34.709Z,98832.91
2018-09-15T03:05:04.216Z,98840.27
2018-09-15T03:07:33.618Z,98830.90
2018-09-15T03:10:03.123Z,98840.64
2018-09-15T03:12:32.713Z,98836.48
2018-09-15T03:15:02.134Z,98842.66
2018-09-15T03:17:31.535Z,98846.33
2018-09-15T03:20:01.035Z,98842.89
2018-09-15T03:22:30.439Z,98845.73
2018-09-15T03:24:59.738Z,98850.16
2018-09-15T03:27:29.141Z,98851.50
2018-09-15T03:29:58.544Z,98851.38
2018-09-15T03:32:28.148Z,98861.38
2018-09-15T03:34:57.553Z,98867.48
2018-09-15T03:37:26.970Z,98865.18
2018-09-15T03:39:56.457Z,98863.56
2018-09-15T03:42:25.859Z,98862.20
2018-09-15T03:44:55.261Z,98871.67
2018-09-15T03:47:24.663Z,98873.36
2018-09-15T03:49:54.171Z,98872.40
2018-09-15T03:52:23.605Z,98870.91
2018-09-15T03:54:53.073Z,98872.89
2018-09-15T03:57:22.805Z,98879.86
2018-09-15T03:59:52.318Z,98884.61
2018-09-15T04:02:21.689Z,98884.50
2018-09-15T04:04:51.092Z,98888.22
2018-09-15T04:07:20.493Z,98885.68
2018-09-15T04:09:49.995Z,98890.61
2018-09-15T04:12:19.402Z,98890.74
2018-09-15T04:14:48.796Z,98894.32
2018-09-15T04:17:18.201Z,98896.84
2018-09-15T04:19:47.602Z,98897.20
2018-09-15T04:22:16.906Z,98899.41
2018-09-15T04:24:46.305Z,98899.38
2018-09-15T04:27:15.703Z,98896.52
2018-09-15T04:29:45.110Z,98901.80
2018-09-15T04:32:14.447Z,98901.37
2018-09-15T04:34:43.709Z,98906.25
2018-09-15T04:37:13.213Z,98905.11
2018-09-15T04:39:42.653Z,98912.75
2018-09-15T04:42:12.119Z,98914.55
2018-09-15T04:44:41.623Z,98908.97
2018-09-15T04:47:11.029Z,98913.30
2018-09-15T04:49:40.511Z,98914.29
2018-09-15T04:52:09.931Z,98915.00
2018-09-15T04:54:39.287Z,98916.02
2018-09-15T04:57:08.735Z,98923.94
2018-09-15T04:59:38.137Z,98926.59
2018-09-15T05:02:07.644Z,98931.22
2018-09-15T05:04:37.044Z,98932.06
2018-09-15T05:07:06.649Z,98934.89
2018-09-15T05:09:36.154Z,98942.80
2018-09-15T05:12:05.659Z,98944.13
2018-09-15T05:14:34.988Z,98942.14
2018-09-15T05:17:04.360Z,98943.98
2018-09-15T05:19:33.964Z,98947.14
2018-09-15T05:22:03.369Z,98945.79
2018-09-15T05:24:32.690Z,98951.40
2018-09-15T05:27:02.172Z,98956.67
2018-09-15T05:29:31.574Z,98959.95
2018-09-15T05:32:00.977Z,98960.47
2018-09-15T05:34:30.581Z,98970.64
2018-09-15T05:36:59.985Z,98979.71
2018-09-15T05:39:29.390Z,98979.87
2018-09-15T05:41:58.787Z,98985.66
2018-09-15T05:44:28.192Z,98987.77
2018-09-15T05:46:57.590Z,98990.65
2018-09-15T05:49:26.992Z,98992.72
2018-09-15T05:51:56.600Z,98988.38
2018-09-15T05:54:26.002Z,98990.96
2018-09-15T05:56:55.405Z,98990.97
2018-09-15T05:59:24.809Z,98987.70
2018-09-15T06:01:54.209Z,98993.05
2018-09-15T06:04:23.610Z,98996.81
2018-09-15T06:06:52.914Z,98988.52
2018-09-15T06:09:22.211Z,98995.25
2018-09-15T06:11:51.611Z,99000.15
2018-09-15T06:14:21.117Z,98998.86
2018-09-15T06:16:50.484Z,98998.53
2018-09-15T06:19:19.815Z,98995.23
2018-09-15T06:21:49.217Z,99005.99
2018-09-15T06:24:18.620Z,99003.39
2018-09-15T06:26:47.915Z,99002.95
2018-09-15T06:29:17.319Z,99002.09
2018-09-15T06:31:46.621Z,99002.16
2018-09-15T06:34:16.022Z,99007.50
2018-09-15T06:36:45.428Z,99002.86
2018-09-15T06:39:14.862Z,99008.44
2018-09-15T06:41:44.333Z,99012.53
2018-09-15T06:44:13.735Z,99010.37
2018-09-15T06:46:43.133Z,99020.30
2018-09-15T06:49:12.536Z,99026.23
2018-09-15T06:51:41.944Z,99024.90
2018-09-15T06:54:11.347Z,99022.19
2018-09-15T06:56:40.749Z,99022.45
2018-09-15T06:59:10.150Z,99025.34
2018-09-15T07:01:40.774Z,99028.64
2018-09-15T07:04:12.122Z,99033.92
2018-09-15T07:06:41.991Z,99033.23
2018-09-15T07:09:12.826Z,99039.30
2018-09-15T07:11:42.376Z,99046.70
2018-09-15T07:14:12.088Z,99047.60
2018-09-15T07:16:41.589Z,99053.75
2018-09-15T07:19:11.093Z,99049.73
2018-09-15T07:21:40.495Z,99056.34
2018-09-15T07:24:09.896Z,99055.34
2018-09-15T07:26:39.300Z,99057.16
2018-09-15T07:29:08.805Z,99055.13
2018-09-15T07:31:38.209Z,99061.78
2018-09-15T07:34:07.754Z,99061.64
2018-09-15T07:36:37.112Z,99069.22
2018-09-15T07:39:08.970Z,99068.53
2018-09-15T07:41:38.438Z,99064.56
2018-09-15T07:44:07.985Z,99080.48
2018-09-15T07:46:37.484Z,99068.16
2018-09-15T07:49:06.988Z,99071.03
2018-09-15T07:51:36.433Z,99072.09
2018-09-15T07:54:05.798Z,99076.58
2018-09-15T07:56:35.098Z,99069.52
2018-09-15T07:59:04.492Z,99072.55
2018-09-15T08:01:33.895Z,99072.58
2018-09-15T08:04:03.397Z,99068.59
2018-09-15T08:06:32.805Z,99075.02
2018-09-15T08:09:02.201Z,99082.09
2018-09-15T08:11:31.607Z,99082.41
2018-09-15T08:14:01.009Z,99079.72
2018-09-15T08:16:30.234Z,99079.33
2018-09-15T08:18:59.606Z,99080.46
2018-09-15T08:21:28.904Z,99076.38
2018-09-15T08:23:58.309Z,99079.92
2018-09-15T08:26:27.715Z,99082.77
2018-09-15T08:28:57.213Z,99075.65
2018-09-15T08:31:26.511Z,99085.48
2018-09-15T08:33:56.239Z,99084.47
2018-09-15T08:36:25.914Z,99075.85
2018-09-15T08:38:55.333Z,99075.45
2018-09-15T08:41:24.663Z,99082.53
2018-09-15T08:43:54.138Z,99084.92
2018-09-15T08:46:23.538Z,99078.53
2018-09-15T08:48:52.899Z,99080.09
2018-09-15T08:51:22.238Z,99077.50
2018-09-15T08:53:51.643Z,99078.40
2018-09-15T08:56:21.147Z,99086.89
2018-09-15T08:58:50.484Z,99084.91
2018-09-15T09:01:19.949Z,99083.80
2018-09-15T09:03:49.353Z,99090.66
2018-09-15T09:06:18.680Z,99085.34
2018-09-15T09:08:48.052Z,99083.73
2018-09-15T09:11:17.555Z,99082.56
2018-09-15T09:13:47.063Z,99083.24
2018-09-15T09:16:16.565Z,99077.66
2018-09-15T09:18:46.584Z,99083.59
2018-09-15T09:21:15.979Z,99082.32
2018-09-15T09:23:45.591Z,99076.84
2018-09-15T09:26:15.060Z,99074.00
2018-09-15T09:28:44.393Z,99071.04
2018-09-15T09:31:13.795Z,99078.45
2018-09-15T09:33:43.196Z,99073.77
2018-09-15T09:36:12.504Z,99073.54
2018-09-15T09:38:42.002Z,99077.34
2018-09-15T09:41:11.305Z,99077.41
2018-09-15T09:43:40.710Z,99074.19
2018-09-15T09:46:10.001Z,99073.64
2018-09-15T09:48:39.402Z,99078.64
2018-09-15T09:51:08.805Z,99082.99
2018-09-15T09:53:38.208Z,99087.54
2018-09-15T09:56:07.610Z,99086.48
2018-09-15T09:58:36.912Z,99069.41
2018-09-15T10:01:11.592Z,99076.20
2018-09-15T10:03:41.039Z,99071.29
2018-09-15T10:06:10.444Z,99074.02
2018-09-15T10:08:39.883Z,99075.30
2018-09-15T10:11:09.346Z,99073.31
2018-09-15T10:13:38.797Z,99075.30
2018-09-15T10:16:08.305Z,99078.11
2018-09-15T10:18:37.755Z,99073.02
2018-09-15T10:21:07.158Z,99076.97
2018-09-15T10:23:36.771Z,99065.21
2018-09-15T10:26:06.162Z,99069.52
2018-09-15T10:28:35.570Z,99066.26
2018-09-15T10:31:04.970Z,99067.08
2018-09-15T10:33:34.371Z,99065.17
2018-09-15T10:36:04.597Z,99052.58
2018-09-15T10:38:34.245Z,99060.61
2018-09-15T10:41:03.706Z,99055.70
2018-09-15T10:43:33.115Z,99053.16
2018-09-15T10:46:02.639Z,99054.56
2018-09-15T10:48:32.026Z,99053.09
2018-09-15T10:51:01.415Z,99054.00
2018-09-15T10:53:30.740Z,99060.00
2018-09-15T10:56:00.116Z,99056.60
2018-09-15T10:58:29.518Z,99045.91
2018-09-15T11:00:59.023Z,99050.46
2018-09-15T11:03:28.527Z,99041.69
2018-09-15T11:05:57.982Z,99041.25
2018-09-15T11:08:27.329Z,99039.78
2018-09-15T11:10:56.634Z,99040.72
2018-09-15T11:13:26.245Z,99040.41
2018-09-15T11:15:55.535Z,99042.44
2018-09-15T11:18:25.040Z,99044.50
2018-09-15T11:20:54.439Z,99054.67
2018-09-15T11:23:23.846Z,99049.09
2018-09-15T11:25:53.246Z,99047.05
2018-09-15T11:28:22.647Z,99059.86
2018-09-15T11:30:52.154Z,99048.55
2018-09-15T11:33:21.551Z,99049.45
2018-09-15T11:35:50.853Z,99047.31
2018-09-15T11:38:20.363Z,99040.05
2018-09-15T11:40:49.765Z,99049.48
2018-09-15T11:43:19.166Z,99044.81
2018-09-15T11:45:48.563Z,99045.31
2018-09-15T11:48:17.863Z,99048.01
2018-09-15T11:50:47.265Z,99041.27
2018-09-15T11:53:16.667Z,99034.08
2018-09-15T11:55:46.068Z,99029.20
2018-09-15T11:58:15.473Z,99022.70
2018-09-15T12:00:49.685Z,99026.61
2018-09-15T12:03:19.091Z,99028.52
2018-09-15T12:05:48.492Z,99035.45
2018-09-15T12:08:18.096Z,99037.14
2018-09-15T12:10:47.602Z,99042.75
2018-09-15T12:13:17.018Z,99034.64
2018-09-15T12:15:46.574Z,99040.75
2018-09-15T12:18:16.013Z,99038.11
2018-09-15T12:20:45.415Z,99045.09
2018-09-15T12:23:14.920Z,99044.71
2018-09-15T12:25:44.321Z,99045.58
2018-09-15T12:28:13.722Z,99045.84
2018-09-15T12:30:43.227Z,99050.46
2018-09-15T12:33:12.629Z,99047.45
2018-09-15T12:35:42.194Z,99049.06
2018-09-15T12:38:11.844Z,99042.61
2018-09-15T12:40:41.200Z,99043.17
2018-09-15T12:43:10.544Z,99046.91
2018-09-15T12:45:39.945Z,99046.00
2018-09-15T12:48:09.350Z,99053.59
2018-09-15T12:50:38.748Z,99057.88
2018-09-15T12:53:08.155Z,99052.09
2018-09-15T12:55:37.556Z,99051.75
2018-09-15T12:58:06.787Z,99050.26
2018-09-15T13:00:36.154Z,99048.66
2018-09-15T13:03:05.451Z,99054.11
2018-09-15T13:05:34.853Z,99056.23
2018-09-15T13:08:04.369Z,99054.53
2018-09-15T13:10:33.760Z,99056.00
2018-09-15T13:13:03.163Z,99052.90
2018-09-15T13:15:32.635Z,99059.78
2018-09-15T13:18:01.870Z,99060.22
2018-09-15T13:20:31.270Z,99055.87
2018-09-15T13:23:00.666Z,99065.44
2018-09-15T13:25:30.077Z,99060.67
2018-09-15T13:27:59.471Z,99058.77
2018-09-15T13:30:28.834Z,99060.12
2018-09-15T13:32:58.174Z,99058.88
2018-09-15T13:35:27.579Z,99060.02
2018-09-15T13:37:56.836Z,99050.40
2018-09-15T13:40:26.175Z,99054.66
2018-09-15T13:42:55.580Z,99055.16
2018-09-15T13:45:24.984Z,99057.13
2018-09-15T13:47:54.381Z,99057.36
2018-09-15T13:50:23.784Z,99061.98
2018-09-15T13:52:53.086Z,99066.95
2018-09-15T13:55:22.484Z,99057.52
2018-09-15T13:57:51.887Z,99056.81
2018-09-15T14:00:21.391Z,99053.32
2018-09-15T14:02:50.896Z,99059.56
2018-09-15T14:05:20.299Z,99061.19
2018-09-15T14:07:49.698Z,99064.33
2018-09-15T14:10:19.387Z,99067.00
2018-09-15T14:12:48.505Z,99069.87
2018-09-15T14:15:17.904Z,99069.06
2018-09-15T14:17:47.305Z,99063.28
2018-09-15T14:20:16.709Z,99064.69
2018-09-15T14:22:46.212Z,99065.45
2018-09-15T14:25:15.615Z,99072.25
2018-09-15T14:27:45.119Z,99072.87
2018-09-15T14:30:14.415Z,99079.98
2018-09-15T14:32:44.026Z,99083.05
2018-09-15T14:35:13.427Z,99081.10
2018-09-15T14:37:42.932Z,99084.03
2018-09-15T14:40:12.421Z,99080.50
2018-09-15T14:42:41.734Z,99079.33
2018-09-15T14:45:11.034Z,99075.83
2018-09-15T14:47:40.438Z,99080.59
2018-09-15T14:50:09.852Z,99074.84
2018-09-15T14:52:39.267Z,99073.75
2018-09-15T14:55:08.699Z,99072.05
2018-09-15T14:57:38.151Z,99070.77
2018-09-15T15:00:08.559Z,99074.87
2018-09-15T15:02:37.971Z,99071.22
2018-09-15T15:05:07.377Z,99077.70
2018-09-15T15:07:36.934Z,99084.08
2018-09-15T15:10:06.387Z,99083.38
2018-09-15T15:12:35.691Z,99082.91
2018-09-15T15:15:05.090Z,99085.95
2018-09-15T15:17:34.490Z,99090.17
2018-09-15T15:20:03.888Z,99087.08
2018-09-15T15:22:33.190Z,99086.00
2018-09-15T15:25:03.988Z,99082.03
2018-09-15T15:27:33.326Z,99079.95
2018-09-15T15:30:02.945Z,99071.37
2018-09-15T15:32:32.375Z,99060.11
2018-09-15T15:35:01.840Z,99063.45
2018-09-15T15:37:31.454Z,99064.00
2018-09-15T15:40:00.848Z,99065.81
2018-09-15T15:42:30.147Z,99070.97
2018-09-15T15:44:59.443Z,99071.89
2018-09-15T15:47:28.745Z,99082.19
2018-09-15T15:49:58.148Z,99087.33
2018-09-15T15:52:28.102Z,99086.56
2018-09-15T15:54:57.655Z,99082.47
2018-09-15T15:57:27.255Z,99073.89
2018-09-15T15:59:56.883Z,99077.75
2018-09-15T16:02:26.389Z,99069.89
2018-09-15T16:04:55.892Z,99073.19
2018-09-15T16:07:25.295Z,99077.36
2018-09-15T16:09:54.724Z,99078.48
2018-09-15T16:12:24.122Z,99082.77
2018-09-15T16:14:53.537Z,99085.44
2018-09-15T16:17:22.800Z,99095.58
2018-09-15T16:19:52.304Z,99098.82
2018-09-15T16:22:21.707Z,99096.30
2018-09-15T16:24:51.109Z,99095.89
2018-09-15T16:27:20.520Z,99097.47
2018-09-15T16:29:49.913Z,99099.95
2018-09-15T16:32:19.417Z,99100.53
2018-09-15T16:34:48.915Z,99111.42
2018-09-15T16:37:18.322Z,99100.07
2018-09-15T16:39:47.827Z,99100.74
2018-09-15T16:42:17.229Z,99108.34
2018-09-15T16:44:46.522Z,99108.63
2018-09-15T16:47:16.036Z,99107.22
2018-09-15T16:49:45.435Z,99114.89
2018-09-15T16:52:14.939Z,99104.08
2018-09-15T16:54:44.444Z,99110.31
2018-09-15T16:57:13.846Z,99108.18
2018-09-15T16:59:43.418Z,99108.05
2018-09-15T17:02:12.854Z,99105.07
2018-09-15T17:04:42.276Z,99105.66
2018-09-15T17:07:11.716Z,99107.91
2018-09-15T17:09:41.166Z,99113.56
2018-09-15T17:12:10.566Z,99114.71
2018-09-15T17:14:40.071Z,99119.85
2018-09-15T17:17:09.474Z,99118.55
2018-09-15T17:19:38.877Z,99112.18
2018-09-15T17:22:08.277Z,99107.34
2018-09-15T17:24:37.781Z,99111.15
2018-09-15T17:27:07.570Z,99111.77
2018-09-15T17:29:36.894Z,99110.48
2018-09-15T17:32:06.496Z,99112.27
2018-09-15T17:34:35.910Z,99115.41
2018-09-15T17:37:05.336Z,99118.95
2018-09-15T17:39:34.806Z,99125.44
2018-09-15T17:42:04.312Z,99128.16
2018-09-15T17:44:33.815Z,99133.59
2018-09-15T17:47:03.320Z,99129.12
2018-09-15T17:49:32.824Z,99134.91
2018-09-15T17:52:02.313Z,99135.18
2018-09-15T17:54:31.761Z,99142.59
2018-09-15T17:57:01.131Z,99149.11
2018-09-15T17:59:30.535Z,99149.75
2018-09-15T18:02:00.007Z,99145.08
2018-09-15T18:04:29.439Z,99154.10
2018-09-15T18:06:58.841Z,99157.58
2018-09-15T18:09:28.257Z,99159.77
2018-09-15T18:11:57.868Z,99162.45
2018-09-15T18:14:27.466Z,99162.16
2018-09-15T18:16:56.962Z,99160.67
2018-09-15T18:19:26.360Z,99162.41
2018-09-15T18:21:55.879Z,99169.51
2018-09-15T18:24:25.397Z,99178.00
2018-09-15T18:26:54.774Z,99177.69
2018-09-15T18:29:24.181Z,99174.84
2018-09-15T18:31:53.681Z,99174.85
2018-09-15T18:34:23.081Z,99172.30
2018-09-15T18:36:53.129Z,99179.14
2018-09-15T18:39:22.395Z,99182.00
2018-09-15T18:41:52.112Z,99189.30
2018-09-15T18:44:21.613Z,99187.56
2018-09-15T18:46:51.015Z,99190.09
2018-09-15T18:49:20.507Z,99192.55
2018-09-15T18:51:50.024Z,99189.35
2018-09-15T18:54:19.427Z,99194.06
2018-09-15T18:56:48.929Z,99199.27
2018-09-15T18:59:18.332Z,99203.27
2018-09-15T19:01:47.818Z,99196.95
2018-09-15T19:04:17.241Z,99203.30
2018-09-15T19:06:46.747Z,99204.50
2018-09-15T19:09:16.140Z,99204.55
2018-09-15T19:11:45.649Z,99209.36
2018-09-15T19:14:14.985Z,99212.92
2018-09-15T19:16:44.352Z,99219.47
2018-09-15T19:19:13.753Z,99218.96
2018-09-15T19:21:43.154Z,99210.73
2018-09-15T19:24:12.559Z,99213.69
2018-09-15T19:26:42.165Z,99210.78
2018-09-15T19:29:11.461Z,99210.67
2018-09-15T19:31:40.863Z,99209.84
2018-09-15T19:34:10.265Z,99224.94
2018-09-15T19:36:39.769Z,99220.30
2018-09-15T19:39:11.877Z,99220.69
2018-09-15T19:41:41.339Z,99218.24
2018-09-15T19:44:10.843Z,99228.65
2018-09-15T19:46:40.554Z,99227.64
2018-09-15T19:49:10.671Z,99229.91
2018-09-15T19:51:40.176Z,99225.60
2018-09-15T19:54:09.681Z,99218.95
2018-09-15T19:56:39.185Z,99231.42
2018-09-15T19:59:08.612Z,99232.98
2018-09-15T20:01:38.093Z,99237.59
2018-09-15T20:04:07.612Z,99238.03
2018-09-15T20:06:36.996Z,99237.70
2018-09-15T20:09:08.866Z,99245.45
2018-09-15T20:11:38.346Z,99236.67
2018-09-15T20:14:08.462Z,99236.94
2018-09-15T20:16:36.579Z,99238.20
2018-09-15T20:19:05.065Z,99238.87
2018-09-15T20:21:33.161Z,99242.73
2018-09-15T20:24:02.605Z,99246.25
2018-09-15T20:26:32.217Z,99238.78
2018-09-15T20:29:01.784Z,99236.84
2018-09-15T20:31:31.214Z,99251.59
2018-09-15T20:34:00.643Z,99249.13
2018-09-15T20:36:30.129Z,99251.70
2018-09-15T20:38:59.450Z,99254.44
2018-09-15T20:41:28.932Z,99259.24
2018-09-15T20:43:58.437Z,99259.57
2018-09-15T20:46:27.941Z,99259.86
2018-09-15T20:48:57.488Z,99266.18
2018-09-15T20:51:26.955Z,99271.34
2018-09-15T20:53:56.353Z,99271.17
2018-09-15T20:56:25.859Z,99267.73
2018-09-15T20:58:55.155Z,99268.83
2018-09-15T21:01:24.660Z,99273.17
2018-09-15T21:03:54.062Z,99275.73
2018-09-15T21:06:23.469Z,99273.95
2018-09-15T21:08:52.971Z,99271.13
2018-09-15T21:11:22.370Z,99280.02
2018-09-15T21:13:54.741Z,99280.16
2018-09-15T21:16:24.245Z,99276.51
2018-09-15T21:18:53.749Z,99280.26
2018-09-15T21:21:23.147Z,99286.06
2018-09-15T21:23:52.343Z,99291.26
2018-09-15T21:26:21.853Z,99286.26
2018-09-15T21:28:51.357Z,99293.55
2018-09-15T21:31:20.865Z,99296.36
2018-09-15T21:33:50.263Z,99296.12
2018-09-15T21:36:19.768Z,99297.95
2018-09-15T21:38:49.125Z,99298.61
2018-09-15T21:41:18.495Z,99295.23
2018-09-15T21:43:47.870Z,99295.92
2018-09-15T21:46:17.232Z,99300.23
2018-09-15T21:48:46.571Z,99302.88
2018-09-15T21:51:15.973Z,99293.33
2018-09-15T21:53:45.462Z,99299.82
2018-09-15T21:56:14.778Z,99299.45
2018-09-15T21:58:44.090Z,99295.68
2018-09-15T22:01:13.481Z,99299.55
2018-09-15T22:03:48.968Z,99296.73
2018-09-15T22:06:18.376Z,99306.69
2018-09-15T22:08:47.726Z,99310.00
2018-09-15T22:11:17.128Z,99305.39
2018-09-15T22:13:46.531Z,99302.22
2018-09-15T22:16:15.932Z,99308.34
2018-09-15T22:18:45.188Z,99311.27
2018-09-15T22:21:14.531Z,99308.63
2018-09-15T22:23:43.830Z,99306.72
2018-09-15T22:26:13.232Z,99308.39
2018-09-15T22:28:42.845Z,99299.10
2018-09-15T22:31:12.242Z,99308.06
2018-09-15T22:33:41.746Z,99315.26
2018-09-15T22:36:11.207Z,99317.78
2018-09-15T22:38:40.549Z,99313.13
2018-09-15T22:41:09.950Z,99306.02
2018-09-15T22:43:39.247Z,99309.48
2018-09-15T22:46:08.756Z,99305.44
2018-09-15T22:48:38.051Z,99310.55
2018-09-15T22:51:07.823Z,99309.23
2018-09-15T22:53:37.167Z,99310.13
2018-09-15T22:56:06.667Z,99312.98
2018-09-15T22:58:36.072Z,99307.95
2018-09-15T23:01:05.375Z,99314.47
2018-09-15T23:03:34.851Z,99310.73
2018-09-15T23:06:04.279Z,99308.18
2018-09-15T23:08:33.782Z,99315.52
2018-09-15T23:11:03.116Z,99318.17
2018-09-15T23:13:32.382Z,99320.34
2018-09-15T23:16:01.785Z,99316.75
2018-09-15T23:18:31.290Z,99312.46
2018-09-15T23:21:00.891Z,99311.67
2018-09-15T23:23:30.298Z,99313.14
2018-09-15T23:25:59.802Z,99315.92
2018-09-15T23:28:29.203Z,99313.77
2018-09-15T23:30:58.606Z,99308.02
2018-09-15T23:33:28.111Z,99311.69
2018-09-15T23:35:57.717Z,99315.50
2018-09-15T23:38:27.119Z,99313.20
2018-09-15T23:40:56.715Z,99310.20
2018-09-15T23:43:26.024Z,99312.69
2018-09-15T23:45:55.441Z,99309.58
2018-09-15T23:48:24.930Z,99310.23
2018-09-15T23:50:54.334Z,99308.06
2018-09-15T23:53:23.755Z,99299.83
2018-09-15T23:55:53.135Z,99303.17
2018-09-15T23:58:22.434Z,99299.20
